Impacts TAF Board
For situational awareness. Not to be used for flight planning purposes.
IDs:

KFLL - Ft Lauderdale-Hollyw, FL, US

Issued at 1510 UTC 01 Mar 2021
Updated at 1728 UTC 01 Mar 2021
Potential Impact None Slight Moderate High
Time1653Z 01/18Z 01/19Z 01/20Z 01/21Z 01/22Z 01/23Z 02/00Z 02/01Z 02/02Z 02/03Z 02/04Z 02/05Z 02/06Z>>
Type OBS PRVL PRVL PRVL PRVL PRVL PRVL PRVL PRVL PRVL PRVL PRVL PRVL PRVL
VIS 10 >6 >6 >6 >6 >6 >6 >6 >6 >6 >6 >6 >6 >6
CIG 40 35 35 35 35 35 35 35 35 -- -- -- -- --
Cover BKN BKN BKN BKN BKN BKN BKN BKN BKN SCT SCT SCT SCT SCT
FltCat VFR VFR VFR VFR VFR VFR VFR VFR VFR VFR VFR VFR VFR VFR
WX -- -- -- -- -- -- -- -- -- -- -- -- -- --
WDir 150 160 160 160 160 160 160 160 160 160 160 160 160 160
WSpd 11 12 12 12 12 12 12 12 12 5 5 5 5 5
WGst -- -- -- -- -- -- -- -- -- -- -- -- -- --
Raw TAF
KFLL 011510Z 0115/0218 16012KT P6SM SCT025 BKN035
  FM020200 16005KT P6SM SCT020
  FM021500 14008KT P6SM SCT030 BKN050


Raw METAR
KFLL 011653Z 15011KT 10SM FEW028 BKN040 BKN065 29/21 A3011 RMK AO2 SLP195 T02890211 $
KFLL 011553Z 17009KT 10SM SCT028 OVC040 28/21 A3012 RMK AO2 SLP200 T02780206 $
KFLL 011453Z 16010KT 10SM SCT028 BKN040 28/20 A3012 RMK AO2 SLP198 T02780200 51010 $

METAR Board
Radar Display
Forecast Discussion
For situational awareness. Not to be used for flight planning purposes.